Terminal Aerodrome Forecast
Issued by NWS

Home | Current Version | Previous Version | Text Only | Print | Product List | Glossary On
Versions: 1 2 3 4 5 6 7 8 9 10 11 12 13 14 15 16
000
FTUS41 KGYX 011120
TAFLEB
TAF
KLEB 011120Z 0112/0212 00000KT P6SM SCT200
     FM011400 00000KT P6SM SCT060 OVC100
     FM011700 18007KT P6SM SCT025 OVC050
     FM012000 18007KT 4SM -SN BKN025 OVC040
     FM020200 VRB03KT 2SM -SN BR SCT015 OVC025=

USA.gov is the U.S. government's official web portal to all federal, state and local government web resources and services.